Aviation Digital Data Service (ADDS)

Output produced by METARs form (1934 UTC 23 January 2019)
found at http://www.aviationweather.gov/metar/data/
 
METAR text: ZYTL 231900Z 00000MPS CAVOK M06/M12 Q1027 NOSIG
Conditions at: ZYTL (DALIAN/DAIREN/LU, CN) observed 1900 UTC 23 January 2019
Temperature: -6.0°C (21°F)
Dewpoint: -12.0°C (10°F) [RH = 62%]
Pressure (altimeter): 30.32 inches Hg (1027.0 mb)
Winds: calm
Visibility: 6 or more miles (10+ km)
Ceiling: ceiling and visibility are OK
Clouds: unknown
Weather: no significant weather observed at this time

METAR text: ZYTL 231830Z 27001MPS CAVOK M05/M12 Q1028 NOSIG
Conditions at: ZYTL (DALIAN/DAIREN/LU, CN) observed 1830 UTC 23 January 2019
Temperature: -5.0°C (23°F)
Dewpoint: -12.0°C (10°F) [RH = 58%]
Pressure (altimeter): 30.35 inches Hg (1028.0 mb)
Winds: from the W (270 degrees) at 2 MPH (2 knots; 1.0 m/s)
Visibility: 6 or more miles (10+ km)
Ceiling: ceiling and visibility are OK
Clouds: unknown
Weather: no significant weather observed at this time

METAR text: ZYTL 231800Z 25001MPS CAVOK M07/M13 Q1028 NOSIG
Conditions at: ZYTL (DALIAN/DAIREN/LU, CN) observed 1800 UTC 23 January 2019
Temperature: -7.0°C (19°F)
Dewpoint: -13.0°C ( 9°F) [RH = 62%]
Pressure (altimeter): 30.35 inches Hg (1028.0 mb)
Winds: from the WSW (250 degrees) at 2 MPH (2 knots; 1.0 m/s)
Visibility: 6 or more miles (10+ km)
Ceiling: ceiling and visibility are OK
Clouds: unknown
Weather: no significant weather observed at this time

METAR text: ZYTL 231730Z 14001MPS CAVOK M03/M13 Q1028 NOSIG
Conditions at: ZYTL (DALIAN/DAIREN/LU, CN) observed 1730 UTC 23 January 2019
Temperature: -3.0°C (27°F)
Dewpoint: -13.0°C ( 9°F) [RH = 46%]
Pressure (altimeter): 30.35 inches Hg (1028.0 mb)
Winds: from the SE (140 degrees) at 2 MPH (2 knots; 1.0 m/s)
Visibility: 6 or more miles (10+ km)
Ceiling: ceiling and visibility are OK
Clouds: unknown
Weather: no significant weather observed at this time

METAR text: ZYTL 231700Z 24002MPS CAVOK M06/M14 Q1028 NOSIG
Conditions at: ZYTL (DALIAN/DAIREN/LU, CN) observed 1700 UTC 23 January 2019
Temperature: -6.0°C (21°F)
Dewpoint: -14.0°C ( 7°F) [RH = 53%]
Pressure (altimeter): 30.35 inches Hg (1028.0 mb)
Winds: from the WSW (240 degrees) at 5 MPH (4 knots; 2.1 m/s)
Visibility: 6 or more miles (10+ km)
Ceiling: ceiling and visibility are OK
Clouds: unknown
Weather: no significant weather observed at this time

METAR text: ZYTL 231630Z 27002MPS CAVOK M05/M13 Q1028 NOSIG
Conditions at: ZYTL (DALIAN/DAIREN/LU, CN) observed 1630 UTC 23 January 2019
Temperature: -5.0°C (23°F)
Dewpoint: -13.0°C ( 9°F) [RH = 53%]
Pressure (altimeter): 30.35 inches Hg (1028.0 mb)
Winds: from the W (270 degrees) at 5 MPH (4 knots; 2.1 m/s)
Visibility: 6 or more miles (10+ km)
Ceiling: ceiling and visibility are OK
Clouds: unknown
Weather: no significant weather observed at this time

METAR text: ZYTL 231600Z 29002MPS CAVOK M04/M13 Q1028 NOSIG
Conditions at: ZYTL (DALIAN/DAIREN/LU, CN) observed 1600 UTC 23 January 2019
Temperature: -4.0°C (25°F)
Dewpoint: -13.0°C ( 9°F) [RH = 50%]
Pressure (altimeter): 30.35 inches Hg (1028.0 mb)
Winds: from the WNW (290 degrees) at 5 MPH (4 knots; 2.1 m/s)
Visibility: 6 or more miles (10+ km)
Ceiling: ceiling and visibility are OK
Clouds: unknown
Weather: no significant weather observed at this time

METAR text: ZYTL 231530Z 24001MPS CAVOK M04/M14 Q1028 NOSIG
Conditions at: ZYTL (DALIAN/DAIREN/LU, CN) observed 1530 UTC 23 January 2019
Temperature: -4.0°C (25°F)
Dewpoint: -14.0°C ( 7°F) [RH = 46%]
Pressure (altimeter): 30.35 inches Hg (1028.0 mb)
Winds: from the WSW (240 degrees) at 2 MPH (2 knots; 1.0 m/s)
Visibility: 6 or more miles (10+ km)
Ceiling: ceiling and visibility are OK
Clouds: unknown
Weather: no significant weather observed at this time

METAR text: ZYTL 231500Z VRB01MPS CAVOK M01/M13 Q1027 NOSIG
Conditions at: ZYTL (DALIAN/DAIREN/LU, CN) observed 1500 UTC 23 January 2019
Temperature: -1.0°C (30°F)
Dewpoint: -13.0°C ( 9°F) [RH = 40%]
Pressure (altimeter): 30.32 inches Hg (1027.0 mb)
Winds: variable direction winds at 2 MPH (2 knots; 1.0 m/s)
Visibility: 6 or more miles (10+ km)
Ceiling: ceiling and visibility are OK
Clouds: unknown
Weather: no significant weather observed at this time

METAR text: ZYTL 231430Z VRB01MPS CAVOK M02/M12 Q1027 NOSIG
Conditions at: ZYTL (DALIAN/DAIREN/LU, CN) observed 1430 UTC 23 January 2019
Temperature: -2.0°C (28°F)
Dewpoint: -12.0°C (10°F) [RH = 46%]
Pressure (altimeter): 30.32 inches Hg (1027.0 mb)
Winds: variable direction winds at 2 MPH (2 knots; 1.0 m/s)
Visibility: 6 or more miles (10+ km)
Ceiling: ceiling and visibility are OK
Clouds: unknown
Weather: no significant weather observed at this time

METAR text: ZYTL 231400Z 29001MPS CAVOK M04/M11 Q1027 NOSIG
Conditions at: ZYTL (DALIAN/DAIREN/LU, CN) observed 1400 UTC 23 January 2019
Temperature: -4.0°C (25°F)
Dewpoint: -11.0°C (12°F) [RH = 58%]
Pressure (altimeter): 30.32 inches Hg (1027.0 mb)
Winds: from the WNW (290 degrees) at 2 MPH (2 knots; 1.0 m/s)
Visibility: 6 or more miles (10+ km)
Ceiling: ceiling and visibility are OK
Clouds: unknown
Weather: no significant weather observed at this time

METAR text: ZYTL 231330Z 31001MPS CAVOK M03/M12 Q1027 NOSIG
Conditions at: ZYTL (DALIAN/DAIREN/LU, CN) observed 1330 UTC 23 January 2019
Temperature: -3.0°C (27°F)
Dewpoint: -12.0°C (10°F) [RH = 50%]
Pressure (altimeter): 30.32 inches Hg (1027.0 mb)
Winds: from the NW (310 degrees) at 2 MPH (2 knots; 1.0 m/s)
Visibility: 6 or more miles (10+ km)
Ceiling: ceiling and visibility are OK
Clouds: unknown
Weather: no significant weather observed at this time

METAR text: ZYTL 231300Z 32001MPS CAVOK M02/M12 Q1027 NOSIG
Conditions at: ZYTL (DALIAN/DAIREN/LU, CN) observed 1300 UTC 23 January 2019
Temperature: -2.0°C (28°F)
Dewpoint: -12.0°C (10°F) [RH = 46%]
Pressure (altimeter): 30.32 inches Hg (1027.0 mb)
Winds: from the NW (320 degrees) at 2 MPH (2 knots; 1.0 m/s)
Visibility: 6 or more miles (10+ km)
Ceiling: ceiling and visibility are OK
Clouds: unknown
Weather: no significant weather observed at this time

METAR text: ZYTL 231230Z 27001MPS CAVOK M02/M10 Q1027 NOSIG
Conditions at: ZYTL (DALIAN/DAIREN/LU, CN) observed 1230 UTC 23 January 2019
Temperature: -2.0°C (28°F)
Dewpoint: -10.0°C (14°F) [RH = 54%]
Pressure (altimeter): 30.32 inches Hg (1027.0 mb)
Winds: from the W (270 degrees) at 2 MPH (2 knots; 1.0 m/s)
Visibility: 6 or more miles (10+ km)
Ceiling: ceiling and visibility are OK
Clouds: unknown
Weather: no significant weather observed at this time

METAR text: ZYTL 231200Z VRB01MPS CAVOK M00/M11 Q1027 NOSIG
Conditions at: ZYTL (DALIAN/DAIREN/LU, CN) observed 1200 UTC 23 January 2019
Temperature: 0.0°C (32°F)
Dewpoint: -11.0°C (12°F) [RH = 43%]
Pressure (altimeter): 30.32 inches Hg (1027.0 mb)
Winds: variable direction winds at 2 MPH (2 knots; 1.0 m/s)
Visibility: 6 or more miles (10+ km)
Ceiling: ceiling and visibility are OK
Clouds: unknown
Weather: no significant weather observed at this time

METAR text: ZYTL 231130Z VRB01MPS CAVOK M01/M11 Q1027 NOSIG
Conditions at: ZYTL (DALIAN/DAIREN/LU, CN) observed 1130 UTC 23 January 2019
Temperature: -1.0°C (30°F)
Dewpoint: -11.0°C (12°F) [RH = 47%]
Pressure (altimeter): 30.32 inches Hg (1027.0 mb)
Winds: variable direction winds at 2 MPH (2 knots; 1.0 m/s)
Visibility: 6 or more miles (10+ km)
Ceiling: ceiling and visibility are OK
Clouds: unknown
Weather: no significant weather observed at this time

METAR text: ZYTL 231100Z 33002MPS 270V020 CAVOK M00/M11 Q1027 NOSIG
Conditions at: ZYTL (DALIAN/DAIREN/LU, CN) observed 1100 UTC 23 January 2019
Temperature: 0.0°C (32°F)
Dewpoint: -11.0°C (12°F) [RH = 43%]
Pressure (altimeter): 30.32 inches Hg (1027.0 mb)
Winds: from the NNW (330 degrees) at 5 MPH (4 knots; 2.1 m/s)
Visibility: 6 or more miles (10+ km)
Ceiling: ceiling and visibility are OK
Clouds: unknown
Weather: no significant weather observed at this time

METAR text: ZYTL 231030Z 28002MPS CAVOK 00/M10 Q1027 NOSIG
Conditions at: ZYTL (DALIAN/DAIREN/LU, CN) observed 1030 UTC 23 January 2019
Temperature: 0.0°C (32°F)
Dewpoint: -10.0°C (14°F) [RH = 47%]
Pressure (altimeter): 30.32 inches Hg (1027.0 mb)
Winds: from the W (280 degrees) at 5 MPH (4 knots; 2.1 m/s)
Visibility: 6 or more miles (10+ km)
Ceiling: ceiling and visibility are OK
Clouds: unknown
Weather: no significant weather observed at this time

METAR text: ZYTL 231000Z 34002MPS CAVOK 01/M11 Q1026 NOSIG
Conditions at: ZYTL (DALIAN/DAIREN/LU, CN) observed 1000 UTC 23 January 2019
Temperature: 1.0°C (34°F)
Dewpoint: -11.0°C (12°F) [RH = 40%]
Pressure (altimeter): 30.30 inches Hg (1026.0 mb)
Winds: from the NNW (340 degrees) at 5 MPH (4 knots; 2.1 m/s)
Visibility: 6 or more miles (10+ km)
Ceiling: ceiling and visibility are OK
Clouds: unknown
Weather: no significant weather observed at this time

METAR text: ZYTL 230930Z 33003MPS 300V010 CAVOK 01/M12 Q1026 NOSIG
Conditions at: ZYTL (DALIAN/DAIREN/LU, CN) observed 0930 UTC 23 January 2019
Temperature: 1.0°C (34°F)
Dewpoint: -12.0°C (10°F) [RH = 37%]
Pressure (altimeter): 30.30 inches Hg (1026.0 mb)
Winds: from the NNW (330 degrees) at 7 MPH (6 knots; 3.1 m/s)
Visibility: 6 or more miles (10+ km)
Ceiling: ceiling and visibility are OK
Clouds: unknown
Weather: no significant weather observed at this time

METAR text: ZYTL 230900Z 32003MPS CAVOK 02/M13 Q1026 NOSIG
Conditions at: ZYTL (DALIAN/DAIREN/LU, CN) observed 0900 UTC 23 January 2019
Temperature: 2.0°C (36°F)
Dewpoint: -13.0°C ( 9°F) [RH = 32%]
Pressure (altimeter): 30.30 inches Hg (1026.0 mb)
Winds: from the NW (320 degrees) at 7 MPH (6 knots; 3.1 m/s)
Visibility: 6 or more miles (10+ km)
Ceiling: ceiling and visibility are OK
Clouds: unknown
Weather: no significant weather observed at this time

METAR text: ZYTL 230830Z 33003MPS 300V010 CAVOK 03/M14 Q1026 NOSIG
Conditions at: ZYTL (DALIAN/DAIREN/LU, CN) observed 0830 UTC 23 January 2019
Temperature: 3.0°C (37°F)
Dewpoint: -14.0°C ( 7°F) [RH = 27%]
Pressure (altimeter): 30.30 inches Hg (1026.0 mb)
Winds: from the NNW (330 degrees) at 7 MPH (6 knots; 3.1 m/s)
Visibility: 6 or more miles (10+ km)
Ceiling: ceiling and visibility are OK
Clouds: unknown
Weather: no significant weather observed at this time

METAR text: ZYTL 230800Z 35004MPS 310V030 CAVOK 03/M14 Q1026 NOSIG
Conditions at: ZYTL (DALIAN/DAIREN/LU, CN) observed 0800 UTC 23 January 2019
Temperature: 3.0°C (37°F)
Dewpoint: -14.0°C ( 7°F) [RH = 27%]
Pressure (altimeter): 30.30 inches Hg (1026.0 mb)
Winds: from the N (350 degrees) at 9 MPH (8 knots; 4.1 m/s)
Visibility: 6 or more miles (10+ km)
Ceiling: ceiling and visibility are OK
Clouds: unknown
Weather: no significant weather observed at this time

METAR text: ZYTL 230730Z 33004MPS 290V010 CAVOK 04/M12 Q1025 NOSIG
Conditions at: ZYTL (DALIAN/DAIREN/LU, CN) observed 0730 UTC 23 January 2019
Temperature: 4.0°C (39°F)
Dewpoint: -12.0°C (10°F) [RH = 30%]
Pressure (altimeter): 30.27 inches Hg (1025.0 mb)
Winds: from the NNW (330 degrees) at 9 MPH (8 knots; 4.1 m/s)
Visibility: 6 or more miles (10+ km)
Ceiling: ceiling and visibility are OK
Clouds: unknown
Weather: no significant weather observed at this time

METAR text: ZYTL 230700Z 34004MPS 300V020 CAVOK 05/M13 Q1025 NOSIG
Conditions at: ZYTL (DALIAN/DAIREN/LU, CN) observed 0700 UTC 23 January 2019
Temperature: 5.0°C (41°F)
Dewpoint: -13.0°C ( 9°F) [RH = 26%]
Pressure (altimeter): 30.27 inches Hg (1025.0 mb)
Winds: from the NNW (340 degrees) at 9 MPH (8 knots; 4.1 m/s)
Visibility: 6 or more miles (10+ km)
Ceiling: ceiling and visibility are OK
Clouds: unknown
Weather: no significant weather observed at this time

METAR text: ZYTL 230630Z 36005MPS CAVOK 05/M12 Q1025 NOSIG
Conditions at: ZYTL (DALIAN/DAIREN/LU, CN) observed 0630 UTC 23 January 2019
Temperature: 5.0°C (41°F)
Dewpoint: -12.0°C (10°F) [RH = 28%]
Pressure (altimeter): 30.27 inches Hg (1025.0 mb)
Winds: from the N (360 degrees) at 12 MPH (10 knots; 5.1 m/s)
Visibility: 6 or more miles (10+ km)
Ceiling: ceiling and visibility are OK
Clouds: unknown
Weather: no significant weather observed at this time

METAR text: ZYTL 230600Z 35004MPS 310V040 CAVOK 05/M12 Q1025 NOSIG
Conditions at: ZYTL (DALIAN/DAIREN/LU, CN) observed 0600 UTC 23 January 2019
Temperature: 5.0°C (41°F)
Dewpoint: -12.0°C (10°F) [RH = 28%]
Pressure (altimeter): 30.27 inches Hg (1025.0 mb)
Winds: from the N (350 degrees) at 9 MPH (8 knots; 4.1 m/s)
Visibility: 6 or more miles (10+ km)
Ceiling: ceiling and visibility are OK
Clouds: unknown
Weather: no significant weather observed at this time

METAR text: ZYTL 230530Z 34004MPS 300V020 CAVOK 05/M10 Q1025 NOSIG
Conditions at: ZYTL (DALIAN/DAIREN/LU, CN) observed 0530 UTC 23 January 2019
Temperature: 5.0°C (41°F)
Dewpoint: -10.0°C (14°F) [RH = 33%]
Pressure (altimeter): 30.27 inches Hg (1025.0 mb)
Winds: from the NNW (340 degrees) at 9 MPH (8 knots; 4.1 m/s)
Visibility: 6 or more miles (10+ km)
Ceiling: ceiling and visibility are OK
Clouds: unknown
Weather: no significant weather observed at this time

METAR text: ZYTL 230500Z 35004MPS 310V040 CAVOK 05/M10 Q1025 NOSIG
Conditions at: ZYTL (DALIAN/DAIREN/LU, CN) observed 0500 UTC 23 January 2019
Temperature: 5.0°C (41°F)
Dewpoint: -10.0°C (14°F) [RH = 33%]
Pressure (altimeter): 30.27 inches Hg (1025.0 mb)
Winds: from the N (350 degrees) at 9 MPH (8 knots; 4.1 m/s)
Visibility: 6 or more miles (10+ km)
Ceiling: ceiling and visibility are OK
Clouds: unknown
Weather: no significant weather observed at this time

METAR text: ZYTL 230430Z 33003MPS 290V020 8000 NSC 05/M08 Q1025 NOSIG
Conditions at: ZYTL (DALIAN/DAIREN/LU, CN) observed 0430 UTC 23 January 2019
Temperature: 5.0°C (41°F)
Dewpoint: -8.0°C (18°F) [RH = 38%]
Pressure (altimeter): 30.27 inches Hg (1025.0 mb)
Winds: from the NNW (330 degrees) at 7 MPH (6 knots; 3.1 m/s)
Visibility: 5 miles ( 8 km)
Ceiling: at least 12,000 feet AGL
Clouds: sky clear below 12,000 feet AGL
Weather: no significant weather observed at this time

METAR text: ZYTL 230400Z 33002MPS 290V360 8000 NSC 04/M07 Q1025 NOSIG
Conditions at: ZYTL (DALIAN/DAIREN/LU, CN) observed 0400 UTC 23 January 2019
Temperature: 4.0°C (39°F)
Dewpoint: -7.0°C (19°F) [RH = 44%]
Pressure (altimeter): 30.27 inches Hg (1025.0 mb)
Winds: from the NNW (330 degrees) at 5 MPH (4 knots; 2.1 m/s)
Visibility: 5 miles ( 8 km)
Ceiling: at least 12,000 feet AGL
Clouds: sky clear below 12,000 feet AGL
Weather: no significant weather observed at this time

METAR text: ZYTL 230330Z 34004MPS 6000 NSC 04/M07 Q1025 NOSIG
Conditions at: ZYTL (DALIAN/DAIREN/LU, CN) observed 0330 UTC 23 January 2019
Temperature: 4.0°C (39°F)
Dewpoint: -7.0°C (19°F) [RH = 44%]
Pressure (altimeter): 30.27 inches Hg (1025.0 mb)
Winds: from the NNW (340 degrees) at 9 MPH (8 knots; 4.1 m/s)
Visibility: 4 miles ( 6 km)
Ceiling: at least 12,000 feet AGL
Clouds: sky clear below 12,000 feet AGL
Weather: no significant weather observed at this time

METAR text: ZYTL 230300Z 33003MPS 300V360 6000 NSC 04/M07 Q1025 NOSIG
Conditions at: ZYTL (DALIAN/DAIREN/LU, CN) observed 0300 UTC 23 January 2019
Temperature: 4.0°C (39°F)
Dewpoint: -7.0°C (19°F) [RH = 44%]
Pressure (altimeter): 30.27 inches Hg (1025.0 mb)
Winds: from the NNW (330 degrees) at 7 MPH (6 knots; 3.1 m/s)
Visibility: 4 miles ( 6 km)
Ceiling: at least 12,000 feet AGL
Clouds: sky clear below 12,000 feet AGL
Weather: no significant weather observed at this time

METAR text: ZYTL 230230Z 36003MPS 6000 NSC 03/M06 Q1025 NOSIG
Conditions at: ZYTL (DALIAN/DAIREN/LU, CN) observed 0230 UTC 23 January 2019
Temperature: 3.0°C (37°F)
Dewpoint: -6.0°C (21°F) [RH = 52%]
Pressure (altimeter): 30.27 inches Hg (1025.0 mb)
Winds: from the N (360 degrees) at 7 MPH (6 knots; 3.1 m/s)
Visibility: 4 miles ( 6 km)
Ceiling: at least 12,000 feet AGL
Clouds: sky clear below 12,000 feet AGL
Weather: no significant weather observed at this time

METAR text: ZYTL 230200Z 33003MPS 300V360 6000 NSC 02/M06 Q1025 NOSIG
Conditions at: ZYTL (DALIAN/DAIREN/LU, CN) observed 0200 UTC 23 January 2019
Temperature: 2.0°C (36°F)
Dewpoint: -6.0°C (21°F) [RH = 55%]
Pressure (altimeter): 30.27 inches Hg (1025.0 mb)
Winds: from the NNW (330 degrees) at 7 MPH (6 knots; 3.1 m/s)
Visibility: 4 miles ( 6 km)
Ceiling: at least 12,000 feet AGL
Clouds: sky clear below 12,000 feet AGL
Weather: no significant weather observed at this time

METAR text: ZYTL 230130Z 34003MPS 5000 HZ NSC 02/M06 Q1024 NOSIG
Conditions at: ZYTL (DALIAN/DAIREN/LU, CN) observed 0130 UTC 23 January 2019
Temperature: 2.0°C (36°F)
Dewpoint: -6.0°C (21°F) [RH = 55%]
Pressure (altimeter): 30.24 inches Hg (1024.0 mb)
Winds: from the NNW (340 degrees) at 7 MPH (6 knots; 3.1 m/s)
Visibility: 3 miles ( 5 km)
Ceiling: at least 12,000 feet AGL
Clouds: sky clear below 12,000 feet AGL
Weather: HZ  (haze)

METAR text: ZYTL 230100Z 33004MPS 6000 NSC 02/M06 Q1023 NOSIG
Conditions at: ZYTL (DALIAN/DAIREN/LU, CN) observed 0100 UTC 23 January 2019
Temperature: 2.0°C (36°F)
Dewpoint: -6.0°C (21°F) [RH = 55%]
Pressure (altimeter): 30.21 inches Hg (1023.0 mb)
Winds: from the NNW (330 degrees) at 9 MPH (8 knots; 4.1 m/s)
Visibility: 4 miles ( 6 km)
Ceiling: at least 12,000 feet AGL
Clouds: sky clear below 12,000 feet AGL
Weather: no significant weather observed at this time

METAR text: ZYTL 230030Z 32003MPS 6000 NSC 01/M06 Q1023 NOSIG
Conditions at: ZYTL (DALIAN/DAIREN/LU, CN) observed 0030 UTC 23 January 2019
Temperature: 1.0°C (34°F)
Dewpoint: -6.0°C (21°F) [RH = 59%]
Pressure (altimeter): 30.21 inches Hg (1023.0 mb)
Winds: from the NW (320 degrees) at 7 MPH (6 knots; 3.1 m/s)
Visibility: 4 miles ( 6 km)
Ceiling: at least 12,000 feet AGL
Clouds: sky clear below 12,000 feet AGL
Weather: no significant weather observed at this time

METAR text: ZYTL 230000Z 27002MPS 6000 NSC M03/M07 Q1023 NOSIG
Conditions at: ZYTL (DALIAN/DAIREN/LU, CN) observed 0000 UTC 23 January 2019
Temperature: -3.0°C (27°F)
Dewpoint: -7.0°C (19°F) [RH = 74%]
Pressure (altimeter): 30.21 inches Hg (1023.0 mb)
Winds: from the W (270 degrees) at 5 MPH (4 knots; 2.1 m/s)
Visibility: 4 miles ( 6 km)
Ceiling: at least 12,000 feet AGL
Clouds: sky clear below 12,000 feet AGL
Weather: no significant weather observed at this time

METAR text: ZYTL 222330Z 26002MPS 8000 NSC M04/M07 Q1022 NOSIG
Conditions at: ZYTL (DALIAN/DAIREN/LU, CN) observed 2330 UTC 22 January 2019
Temperature: -4.0°C (25°F)
Dewpoint: -7.0°C (19°F) [RH = 80%]
Pressure (altimeter): 30.18 inches Hg (1022.0 mb)
Winds: from the W (260 degrees) at 5 MPH (4 knots; 2.1 m/s)
Visibility: 5 miles ( 8 km)
Ceiling: at least 12,000 feet AGL
Clouds: sky clear below 12,000 feet AGL
Weather: no significant weather observed at this time

METAR text: ZYTL 222300Z VRB01MPS 8000 NSC M05/M08 Q1022 NOSIG
Conditions at: ZYTL (DALIAN/DAIREN/LU, CN) observed 2300 UTC 22 January 2019
Temperature: -5.0°C (23°F)
Dewpoint: -8.0°C (18°F) [RH = 79%]
Pressure (altimeter): 30.18 inches Hg (1022.0 mb)
Winds: variable direction winds at 2 MPH (2 knots; 1.0 m/s)
Visibility: 5 miles ( 8 km)
Ceiling: at least 12,000 feet AGL
Clouds: sky clear below 12,000 feet AGL
Weather: no significant weather observed at this time

METAR text: ZYTL 222230Z 28002MPS 5000 BR NSC M06/M08 Q1021 NOSIG
Conditions at: ZYTL (DALIAN/DAIREN/LU, CN) observed 2230 UTC 22 January 2019
Temperature: -6.0°C (21°F)
Dewpoint: -8.0°C (18°F) [RH = 86%]
Pressure (altimeter): 30.15 inches Hg (1021.0 mb)
Winds: from the W (280 degrees) at 5 MPH (4 knots; 2.1 m/s)
Visibility: 3 miles ( 5 km)
Ceiling: at least 12,000 feet AGL
Clouds: sky clear below 12,000 feet AGL
Weather: BR  (mist)

METAR text: ZYTL 222200Z 29002MPS 260V320 5000 BR NSC M07/M09 Q1021 NOSIG
Conditions at: ZYTL (DALIAN/DAIREN/LU, CN) observed 2200 UTC 22 January 2019
Temperature: -7.0°C (19°F)
Dewpoint: -9.0°C (16°F) [RH = 86%]
Pressure (altimeter): 30.15 inches Hg (1021.0 mb)
Winds: from the WNW (290 degrees) at 5 MPH (4 knots; 2.1 m/s)
Visibility: 3 miles ( 5 km)
Ceiling: at least 12,000 feet AGL
Clouds: sky clear below 12,000 feet AGL
Weather: BR  (mist)

METAR text: ZYTL 222130Z 27002MPS 5000 BR NSC M05/M07 Q1020 NOSIG
Conditions at: ZYTL (DALIAN/DAIREN/LU, CN) observed 2130 UTC 22 January 2019
Temperature: -5.0°C (23°F)
Dewpoint: -7.0°C (19°F) [RH = 86%]
Pressure (altimeter): 30.12 inches Hg (1020.0 mb)
Winds: from the W (270 degrees) at 5 MPH (4 knots; 2.1 m/s)
Visibility: 3 miles ( 5 km)
Ceiling: at least 12,000 feet AGL
Clouds: sky clear below 12,000 feet AGL
Weather: BR  (mist)

METAR text: ZYTL 222100Z 26002MPS 5000 BR NSC M05/M07 Q1020 NOSIG
Conditions at: ZYTL (DALIAN/DAIREN/LU, CN) observed 2100 UTC 22 January 2019
Temperature: -5.0°C (23°F)
Dewpoint: -7.0°C (19°F) [RH = 86%]
Pressure (altimeter): 30.12 inches Hg (1020.0 mb)
Winds: from the W (260 degrees) at 5 MPH (4 knots; 2.1 m/s)
Visibility: 3 miles ( 5 km)
Ceiling: at least 12,000 feet AGL
Clouds: sky clear below 12,000 feet AGL
Weather: BR  (mist)

METAR text: ZYTL 222030Z 29002MPS 5000 BR NSC M06/M08 Q1020 NOSIG
Conditions at: ZYTL (DALIAN/DAIREN/LU, CN) observed 2030 UTC 22 January 2019
Temperature: -6.0°C (21°F)
Dewpoint: -8.0°C (18°F) [RH = 86%]
Pressure (altimeter): 30.12 inches Hg (1020.0 mb)
Winds: from the WNW (290 degrees) at 5 MPH (4 knots; 2.1 m/s)
Visibility: 3 miles ( 5 km)
Ceiling: at least 12,000 feet AGL
Clouds: sky clear below 12,000 feet AGL
Weather: BR  (mist)

METAR text: ZYTL 222000Z 23001MPS 5000 BR NSC M06/M07 Q1020 NOSIG
Conditions at: ZYTL (DALIAN/DAIREN/LU, CN) observed 2000 UTC 22 January 2019
Temperature: -6.0°C (21°F)
Dewpoint: -7.0°C (19°F) [RH = 93%]
Pressure (altimeter): 30.12 inches Hg (1020.0 mb)
Winds: from the SW (230 degrees) at 2 MPH (2 knots; 1.0 m/s)
Visibility: 3 miles ( 5 km)
Ceiling: at least 12,000 feet AGL
Clouds: sky clear below 12,000 feet AGL
Weather: BR  (mist)

METAR text: ZYTL 221930Z 25001MPS 5000 BR NSC M06/M07 Q1020 NOSIG
Conditions at: ZYTL (DALIAN/DAIREN/LU, CN) observed 1930 UTC 22 January 2019
Temperature: -6.0°C (21°F)
Dewpoint: -7.0°C (19°F) [RH = 93%]
Pressure (altimeter): 30.12 inches Hg (1020.0 mb)
Winds: from the WSW (250 degrees) at 2 MPH (2 knots; 1.0 m/s)
Visibility: 3 miles ( 5 km)
Ceiling: at least 12,000 feet AGL
Clouds: sky clear below 12,000 feet AGL
Weather: BR  (mist)

METAR text: ZYTL 221900Z 24001MPS 5000 BR NSC M04/M07 Q1020 NOSIG
Conditions at: ZYTL (DALIAN/DAIREN/LU, CN) observed 1900 UTC 22 January 2019
Temperature: -4.0°C (25°F)
Dewpoint: -7.0°C (19°F) [RH = 80%]
Pressure (altimeter): 30.12 inches Hg (1020.0 mb)
Winds: from the WSW (240 degrees) at 2 MPH (2 knots; 1.0 m/s)
Visibility: 3 miles ( 5 km)
Ceiling: at least 12,000 feet AGL
Clouds: sky clear below 12,000 feet AGL
Weather: BR  (mist)

METAR text: ZYTL 221830Z 22001MPS 5000 BR NSC M03/M06 Q1020 NOSIG
Conditions at: ZYTL (DALIAN/DAIREN/LU, CN) observed 1830 UTC 22 January 2019
Temperature: -3.0°C (27°F)
Dewpoint: -6.0°C (21°F) [RH = 80%]
Pressure (altimeter): 30.12 inches Hg (1020.0 mb)
Winds: from the SW (220 degrees) at 2 MPH (2 knots; 1.0 m/s)
Visibility: 3 miles ( 5 km)
Ceiling: at least 12,000 feet AGL
Clouds: sky clear below 12,000 feet AGL
Weather: BR  (mist)

METAR text: ZYTL 221800Z 27002MPS 6000 NSC M05/M06 Q1020 NOSIG
Conditions at: ZYTL (DALIAN/DAIREN/LU, CN) observed 1800 UTC 22 January 2019
Temperature: -5.0°C (23°F)
Dewpoint: -6.0°C (21°F) [RH = 93%]
Pressure (altimeter): 30.12 inches Hg (1020.0 mb)
Winds: from the W (270 degrees) at 5 MPH (4 knots; 2.1 m/s)
Visibility: 4 miles ( 6 km)
Ceiling: at least 12,000 feet AGL
Clouds: sky clear below 12,000 feet AGL
Weather: no significant weather observed at this time

METAR text: ZYTL 221730Z 29001MPS 6000 NSC M03/M05 Q1019 NOSIG
Conditions at: ZYTL (DALIAN/DAIREN/LU, CN) observed 1730 UTC 22 January 2019
Temperature: -3.0°C (27°F)
Dewpoint: -5.0°C (23°F) [RH = 86%]
Pressure (altimeter): 30.09 inches Hg (1019.0 mb)
Winds: from the WNW (290 degrees) at 2 MPH (2 knots; 1.0 m/s)
Visibility: 4 miles ( 6 km)
Ceiling: at least 12,000 feet AGL
Clouds: sky clear below 12,000 feet AGL
Weather: no significant weather observed at this time

METAR text: ZYTL 221700Z 29001MPS 6000 NSC M03/M05 Q1019 NOSIG
Conditions at: ZYTL (DALIAN/DAIREN/LU, CN) observed 1700 UTC 22 January 2019
Temperature: -3.0°C (27°F)
Dewpoint: -5.0°C (23°F) [RH = 86%]
Pressure (altimeter): 30.09 inches Hg (1019.0 mb)
Winds: from the WNW (290 degrees) at 2 MPH (2 knots; 1.0 m/s)
Visibility: 4 miles ( 6 km)
Ceiling: at least 12,000 feet AGL
Clouds: sky clear below 12,000 feet AGL
Weather: no significant weather observed at this time

METAR text: ZYTL 221630Z 28001MPS 6000 NSC M04/M06 Q1019 NOSIG
Conditions at: ZYTL (DALIAN/DAIREN/LU, CN) observed 1630 UTC 22 January 2019
Temperature: -4.0°C (25°F)
Dewpoint: -6.0°C (21°F) [RH = 86%]
Pressure (altimeter): 30.09 inches Hg (1019.0 mb)
Winds: from the W (280 degrees) at 2 MPH (2 knots; 1.0 m/s)
Visibility: 4 miles ( 6 km)
Ceiling: at least 12,000 feet AGL
Clouds: sky clear below 12,000 feet AGL
Weather: no significant weather observed at this time

METAR text: ZYTL 221600Z VRB01MPS 6000 NSC M03/M05 Q1019 NOSIG
Conditions at: ZYTL (DALIAN/DAIREN/LU, CN) observed 1600 UTC 22 January 2019
Temperature: -3.0°C (27°F)
Dewpoint: -5.0°C (23°F) [RH = 86%]
Pressure (altimeter): 30.09 inches Hg (1019.0 mb)
Winds: variable direction winds at 2 MPH (2 knots; 1.0 m/s)
Visibility: 4 miles ( 6 km)
Ceiling: at least 12,000 feet AGL
Clouds: sky clear below 12,000 feet AGL
Weather: no significant weather observed at this time

METAR text: ZYTL 221530Z 25001MPS 6000 NSC M03/M05 Q1019 NOSIG
Conditions at: ZYTL (DALIAN/DAIREN/LU, CN) observed 1530 UTC 22 January 2019
Temperature: -3.0°C (27°F)
Dewpoint: -5.0°C (23°F) [RH = 86%]
Pressure (altimeter): 30.09 inches Hg (1019.0 mb)
Winds: from the WSW (250 degrees) at 2 MPH (2 knots; 1.0 m/s)
Visibility: 4 miles ( 6 km)
Ceiling: at least 12,000 feet AGL
Clouds: sky clear below 12,000 feet AGL
Weather: no significant weather observed at this time

METAR text: ZYTL 221500Z VRB01MPS 6000 NSC M03/M06 Q1019 NOSIG
Conditions at: ZYTL (DALIAN/DAIREN/LU, CN) observed 1500 UTC 22 January 2019
Temperature: -3.0°C (27°F)
Dewpoint: -6.0°C (21°F) [RH = 80%]
Pressure (altimeter): 30.09 inches Hg (1019.0 mb)
Winds: variable direction winds at 2 MPH (2 knots; 1.0 m/s)
Visibility: 4 miles ( 6 km)
Ceiling: at least 12,000 feet AGL
Clouds: sky clear below 12,000 feet AGL
Weather: no significant weather observed at this time

METAR text: ZYTL 221430Z 25002MPS 6000 NSC M04/M07 Q1019 NOSIG
Conditions at: ZYTL (DALIAN/DAIREN/LU, CN) observed 1430 UTC 22 January 2019
Temperature: -4.0°C (25°F)
Dewpoint: -7.0°C (19°F) [RH = 80%]
Pressure (altimeter): 30.09 inches Hg (1019.0 mb)
Winds: from the WSW (250 degrees) at 5 MPH (4 knots; 2.1 m/s)
Visibility: 4 miles ( 6 km)
Ceiling: at least 12,000 feet AGL
Clouds: sky clear below 12,000 feet AGL
Weather: no significant weather observed at this time

METAR text: ZYTL 221400Z 26001MPS 8000 NSC M02/M06 Q1019 NOSIG
Conditions at: ZYTL (DALIAN/DAIREN/LU, CN) observed 1400 UTC 22 January 2019
Temperature: -2.0°C (28°F)
Dewpoint: -6.0°C (21°F) [RH = 74%]
Pressure (altimeter): 30.09 inches Hg (1019.0 mb)
Winds: from the W (260 degrees) at 2 MPH (2 knots; 1.0 m/s)
Visibility: 5 miles ( 8 km)
Ceiling: at least 12,000 feet AGL
Clouds: sky clear below 12,000 feet AGL
Weather: no significant weather observed at this time

METAR text: ZYTL 221330Z VRB01MPS 8000 NSC M01/M05 Q1019 NOSIG
Conditions at: ZYTL (DALIAN/DAIREN/LU, CN) observed 1330 UTC 22 January 2019
Temperature: -1.0°C (30°F)
Dewpoint: -5.0°C (23°F) [RH = 74%]
Pressure (altimeter): 30.09 inches Hg (1019.0 mb)
Winds: variable direction winds at 2 MPH (2 knots; 1.0 m/s)
Visibility: 5 miles ( 8 km)
Ceiling: at least 12,000 feet AGL
Clouds: sky clear below 12,000 feet AGL
Weather: no significant weather observed at this time

METAR text: ZYTL 221300Z VRB01MPS 8000 NSC 01/M05 Q1019 NOSIG
Conditions at: ZYTL (DALIAN/DAIREN/LU, CN) observed 1300 UTC 22 January 2019
Temperature: 1.0°C (34°F)
Dewpoint: -5.0°C (23°F) [RH = 64%]
Pressure (altimeter): 30.09 inches Hg (1019.0 mb)
Winds: variable direction winds at 2 MPH (2 knots; 1.0 m/s)
Visibility: 5 miles ( 8 km)
Ceiling: at least 12,000 feet AGL
Clouds: sky clear below 12,000 feet AGL
Weather: no significant weather observed at this time

METAR text: ZYTL 221230Z VRB01MPS 8000 NSC 00/M04 Q1018 NOSIG
Conditions at: ZYTL (DALIAN/DAIREN/LU, CN) observed 1230 UTC 22 January 2019
Temperature: 0.0°C (32°F)
Dewpoint: -4.0°C (25°F) [RH = 74%]
Pressure (altimeter): 30.06 inches Hg (1018.0 mb)
Winds: variable direction winds at 2 MPH (2 knots; 1.0 m/s)
Visibility: 5 miles ( 8 km)
Ceiling: at least 12,000 feet AGL
Clouds: sky clear below 12,000 feet AGL
Weather: no significant weather observed at this time

METAR text: ZYTL 221200Z VRB01MPS 6000 NSC 00/M03 Q1018 NOSIG
Conditions at: ZYTL (DALIAN/DAIREN/LU, CN) observed 1200 UTC 22 January 2019
Temperature: 0.0°C (32°F)
Dewpoint: -3.0°C (27°F) [RH = 80%]
Pressure (altimeter): 30.06 inches Hg (1018.0 mb)
Winds: variable direction winds at 2 MPH (2 knots; 1.0 m/s)
Visibility: 4 miles ( 6 km)
Ceiling: at least 12,000 feet AGL
Clouds: sky clear below 12,000 feet AGL
Weather: no significant weather observed at this time

METAR text: ZYTL 221130Z 29002MPS 6000 NSC 01/M03 Q1018 NOSIG
Conditions at: ZYTL (DALIAN/DAIREN/LU, CN) observed 1130 UTC 22 January 2019
Temperature: 1.0°C (34°F)
Dewpoint: -3.0°C (27°F) [RH = 75%]
Pressure (altimeter): 30.06 inches Hg (1018.0 mb)
Winds: from the WNW (290 degrees) at 5 MPH (4 knots; 2.1 m/s)
Visibility: 4 miles ( 6 km)
Ceiling: at least 12,000 feet AGL
Clouds: sky clear below 12,000 feet AGL
Weather: no significant weather observed at this time

METAR text: ZYTL 221100Z 27002MPS 6000 NSC 02/M03 Q1018 NOSIG
Conditions at: ZYTL (DALIAN/DAIREN/LU, CN) observed 1100 UTC 22 January 2019
Temperature: 2.0°C (36°F)
Dewpoint: -3.0°C (27°F) [RH = 69%]
Pressure (altimeter): 30.06 inches Hg (1018.0 mb)
Winds: from the W (270 degrees) at 5 MPH (4 knots; 2.1 m/s)
Visibility: 4 miles ( 6 km)
Ceiling: at least 12,000 feet AGL
Clouds: sky clear below 12,000 feet AGL
Weather: no significant weather observed at this time

METAR text: ZYTL 221030Z VRB01MPS 8000 NSC 00/M05 Q1018 NOSIG
Conditions at: ZYTL (DALIAN/DAIREN/LU, CN) observed 1030 UTC 22 January 2019
Temperature: 0.0°C (32°F)
Dewpoint: -5.0°C (23°F) [RH = 69%]
Pressure (altimeter): 30.06 inches Hg (1018.0 mb)
Winds: variable direction winds at 2 MPH (2 knots; 1.0 m/s)
Visibility: 5 miles ( 8 km)
Ceiling: at least 12,000 feet AGL
Clouds: sky clear below 12,000 feet AGL
Weather: no significant weather observed at this time

METAR text: ZYTL 221000Z 26002MPS 8000 NSC 01/M07 Q1018 NOSIG
Conditions at: ZYTL (DALIAN/DAIREN/LU, CN) observed 1000 UTC 22 January 2019
Temperature: 1.0°C (34°F)
Dewpoint: -7.0°C (19°F) [RH = 55%]
Pressure (altimeter): 30.06 inches Hg (1018.0 mb)
Winds: from the W (260 degrees) at 5 MPH (4 knots; 2.1 m/s)
Visibility: 5 miles ( 8 km)
Ceiling: at least 12,000 feet AGL
Clouds: sky clear below 12,000 feet AGL
Weather: no significant weather observed at this time

METAR text: ZYTL 220930Z 27004MPS CAVOK 01/M06 Q1017 NOSIG
Conditions at: ZYTL (DALIAN/DAIREN/LU, CN) observed 0930 UTC 22 January 2019
Temperature: 1.0°C (34°F)
Dewpoint: -6.0°C (21°F) [RH = 59%]
Pressure (altimeter): 30.03 inches Hg (1017.0 mb)
Winds: from the W (270 degrees) at 9 MPH (8 knots; 4.1 m/s)
Visibility: 6 or more miles (10+ km)
Ceiling: ceiling and visibility are OK
Clouds: unknown
Weather: no significant weather observed at this time

METAR text: ZYTL 220900Z 29005MPS CAVOK 03/M04 Q1017 NOSIG
Conditions at: ZYTL (DALIAN/DAIREN/LU, CN) observed 0900 UTC 22 January 2019
Temperature: 3.0°C (37°F)
Dewpoint: -4.0°C (25°F) [RH = 60%]
Pressure (altimeter): 30.03 inches Hg (1017.0 mb)
Winds: from the WNW (290 degrees) at 12 MPH (10 knots; 5.1 m/s)
Visibility: 6 or more miles (10+ km)
Ceiling: ceiling and visibility are OK
Clouds: unknown
Weather: no significant weather observed at this time

METAR text: ZYTL 220830Z 28004MPS CAVOK 04/M03 Q1017 NOSIG
Conditions at: ZYTL (DALIAN/DAIREN/LU, CN) observed 0830 UTC 22 January 2019
Temperature: 4.0°C (39°F)
Dewpoint: -3.0°C (27°F) [RH = 60%]
Pressure (altimeter): 30.03 inches Hg (1017.0 mb)
Winds: from the W (280 degrees) at 9 MPH (8 knots; 4.1 m/s)
Visibility: 6 or more miles (10+ km)
Ceiling: ceiling and visibility are OK
Clouds: unknown
Weather: no significant weather observed at this time

METAR text: ZYTL 220800Z 28006MPS CAVOK 05/M03 Q1017 NOSIG
Conditions at: ZYTL (DALIAN/DAIREN/LU, CN) observed 0800 UTC 22 January 2019
Temperature: 5.0°C (41°F)
Dewpoint: -3.0°C (27°F) [RH = 56%]
Pressure (altimeter): 30.03 inches Hg (1017.0 mb)
Winds: from the W (280 degrees) at 14 MPH (12 knots; 6.2 m/s)
Visibility: 6 or more miles (10+ km)
Ceiling: ceiling and visibility are OK
Clouds: unknown
Weather: no significant weather observed at this time

Forecast for: ZYTL (DALIAN/DAIREN/LU, CN)
Text: TAF ZYTL 231502Z 2318/2418 11003G10MPS 5000 BR NSC TX06/2406Z TNM03/21Z
Forecast period: 1800 UTC 23 January 2019 to 1800 UTC 24 January 2019
Forecast type: FROM: standard forecast or significant change
Winds: from the ESE (110 degrees) at 7 MPH (6 knots; 3.1 m/s)
gusting to 22 MPH (19 knots; 9.8 m/s)
Visibility: 3 miles (5 km)
Ceiling: unknown
Clouds: missing
Weather: BR  (mist)